sensor_id;sensor_type;location;lat;lon;timestamp;P1;durP1;ratioP1;P2;durP2;ratioP2
735;SDS011;352;48.626;9.238;2023-08-12T00:01:48;7.63;;;6.60;;
735;SDS011;352;48.626;9.238;2023-08-12T00:04:15;6.73;;;6.13;;
735;SDS011;352;48.626;9.238;2023-08-12T00:06:42;7.23;;;6.53;;
735;SDS011;352;48.626;9.238;2023-08-12T00:09:09;7.20;;;6.50;;
735;SDS011;352;48.626;9.238;2023-08-12T00:11:37;10.53;;;7.83;;
735;SDS011;352;48.626;9.238;2023-08-12T00:14:05;7.40;;;6.10;;
735;SDS011;352;48.626;9.238;2023-08-12T00:16:33;8.80;;;6.87;;
735;SDS011;352;48.626;9.238;2023-08-12T00:19:00;7.80;;;7.00;;
735;SDS011;352;48.626;9.238;2023-08-12T00:21:27;9.60;;;8.03;;
735;SDS011;352;48.626;9.238;2023-08-12T00:23:54;7.10;;;6.30;;
735;SDS011;352;48.626;9.238;2023-08-12T00:26:22;7.00;;;6.10;;
735;SDS011;352;48.626;9.238;2023-08-12T00:28:49;8.43;;;7.60;;
735;SDS011;352;48.626;9.238;2023-08-12T00:31:16;8.80;;;6.33;;
735;SDS011;352;48.626;9.238;2023-08-12T00:33:45;7.10;;;6.50;;
735;SDS011;352;48.626;9.238;2023-08-12T00:36:12;9.90;;;6.90;;
735;SDS011;352;48.626;9.238;2023-08-12T00:38:39;6.53;;;5.90;;
735;SDS011;352;48.626;9.238;2023-08-12T00:41:06;8.60;;;6.63;;
735;SDS011;352;48.626;9.238;2023-08-12T00:43:33;7.37;;;6.27;;
735;SDS011;352;48.626;9.238;2023-08-12T00:45:59;9.47;;;6.70;;
735;SDS011;352;48.626;9.238;2023-08-12T00:48:27;7.20;;;6.50;;
735;SDS011;352;48.626;9.238;2023-08-12T00:50:56;7.23;;;6.50;;
735;SDS011;352;48.626;9.238;2023-08-12T00:53:23;7.43;;;6.63;;
735;SDS011;352;48.626;9.238;2023-08-12T00:55:50;8.27;;;7.43;;
735;SDS011;352;48.626;9.238;2023-08-12T00:58:17;8.67;;;6.70;;
735;SDS011;352;48.626;9.238;2023-08-12T01:00:45;7.97;;;6.73;;
735;SDS011;352;48.626;9.238;2023-08-12T01:03:12;7.93;;;7.13;;
735;SDS011;352;48.626;9.238;2023-08-12T01:05:39;8.07;;;6.77;;
735;SDS011;352;48.626;9.238;2023-08-12T01:08:08;7.87;;;6.03;;
735;SDS011;352;48.626;9.238;2023-08-12T01:10:35;7.60;;;6.80;;
735;SDS011;352;48.626;9.238;2023-08-12T01:13:08;9.10;;;7.27;;
735;SDS011;352;48.626;9.238;2023-08-12T01:15:43;7.70;;;7.00;;
735;SDS011;352;48.626;9.238;2023-08-12T01:18:11;8.50;;;6.10;;
735;SDS011;352;48.626;9.238;2023-08-12T01:20:40;8.30;;;6.63;;
735;SDS011;352;48.626;9.238;2023-08-12T01:23:10;8.07;;;6.60;;
735;SDS011;352;48.626;9.238;2023-08-12T01:28:38;8.13;;;6.80;;
735;SDS011;352;48.626;9.238;2023-08-12T01:31:07;7.70;;;7.00;;
735;SDS011;352;48.626;9.238;2023-08-12T01:33:46;9.07;;;7.00;;
735;SDS011;352;48.626;9.238;2023-08-12T01:36:19;8.00;;;6.70;;
735;SDS011;352;48.626;9.238;2023-08-12T01:38:48;8.90;;;8.00;;
735;SDS011;352;48.626;9.238;2023-08-12T01:41:17;8.37;;;7.47;;
735;SDS011;352;48.626;9.238;2023-08-12T01:43:45;9.90;;;6.43;;
735;SDS011;352;48.626;9.238;2023-08-12T01:46:13;8.50;;;7.03;;
735;SDS011;352;48.626;9.238;2023-08-12T01:48:40;8.40;;;7.40;;
735;SDS011;352;48.626;9.238;2023-08-12T01:51:07;7.67;;;6.83;;
735;SDS011;352;48.626;9.238;2023-08-12T01:53:34;7.97;;;7.07;;
735;SDS011;352;48.626;9.238;2023-08-12T01:56:03;10.30;;;6.87;;
735;SDS011;352;48.626;9.238;2023-08-12T01:58:30;7.97;;;7.17;;
735;SDS011;352;48.626;9.238;2023-08-12T02:00:57;8.07;;;7.27;;
735;SDS011;352;48.626;9.238;2023-08-12T02:03:24;14.73;;;7.20;;
735;SDS011;352;48.626;9.238;2023-08-12T02:05:51;7.13;;;6.43;;
735;SDS011;352;48.626;9.238;2023-08-12T02:08:18;7.50;;;6.20;;
735;SDS011;352;48.626;9.238;2023-08-12T02:10:45;10.67;;;7.20;;
735;SDS011;352;48.626;9.238;2023-08-12T02:13:14;8.67;;;7.00;;
735;SDS011;352;48.626;9.238;2023-08-12T02:15:41;8.37;;;7.47;;
735;SDS011;352;48.626;9.238;2023-08-12T02:18:08;8.47;;;7.17;;
735;SDS011;352;48.626;9.238;2023-08-12T02:20:35;9.03;;;6.80;;
735;SDS011;352;48.626;9.238;2023-08-12T02:23:02;9.63;;;7.20;;
735;SDS011;352;48.626;9.238;2023-08-12T02:25:30;8.37;;;6.87;;
735;SDS011;352;48.626;9.238;2023-08-12T02:27:57;9.70;;;7.00;;
735;SDS011;352;48.626;9.238;2023-08-12T02:30:26;8.93;;;6.40;;
735;SDS011;352;48.626;9.238;2023-08-12T02:32:54;8.43;;;6.17;;
735;SDS011;352;48.626;9.238;2023-08-12T02:35:22;7.90;;;6.93;;
735;SDS011;352;48.626;9.238;2023-08-12T02:37:49;7.33;;;6.60;;
735;SDS011;352;48.626;9.238;2023-08-12T02:40:16;8.60;;;7.17;;
735;SDS011;352;48.626;9.238;2023-08-12T02:42:43;8.23;;;7.43;;
735;SDS011;352;48.626;9.238;2023-08-12T02:45:10;10.40;;;7.50;;
735;SDS011;352;48.626;9.238;2023-08-12T02:47:39;9.00;;;7.60;;
735;SDS011;352;48.626;9.238;2023-08-12T02:50:07;11.13;;;7.60;;
735;SDS011;352;48.626;9.238;2023-08-12T02:52:34;9.60;;;8.20;;
735;SDS011;352;48.626;9.238;2023-08-12T02:55:02;7.73;;;6.93;;
735;SDS011;352;48.626;9.238;2023-08-12T02:57:29;9.73;;;7.67;;
735;SDS011;352;48.626;9.238;2023-08-12T02:59:56;8.60;;;7.40;;
735;SDS011;352;48.626;9.238;2023-08-12T03:02:23;8.63;;;7.60;;
735;SDS011;352;48.626;9.238;2023-08-12T03:04:53;10.00;;;7.83;;
735;SDS011;352;48.626;9.238;2023-08-12T03:07:20;9.20;;;7.87;;
735;SDS011;352;48.626;9.238;2023-08-12T03:09:47;11.23;;;8.03;;
735;SDS011;352;48.626;9.238;2023-08-12T03:12:14;8.73;;;7.10;;
735;SDS011;352;48.626;9.238;2023-08-12T03:14:41;8.27;;;6.73;;
735;SDS011;352;48.626;9.238;2023-08-12T03:17:08;9.20;;;7.90;;
735;SDS011;352;48.626;9.238;2023-08-12T03:19:36;9.60;;;7.00;;
735;SDS011;352;48.626;9.238;2023-08-12T03:22:04;11.07;;;7.10;;
735;SDS011;352;48.626;9.238;2023-08-12T03:24:31;10.00;;;7.80;;
735;SDS011;352;48.626;9.238;2023-08-12T03:26:58;8.57;;;7.77;;
735;SDS011;352;48.626;9.238;2023-08-12T03:29:25;7.77;;;6.97;;
735;SDS011;352;48.626;9.238;2023-08-12T03:31:53;8.40;;;7.53;;
735;SDS011;352;48.626;9.238;2023-08-12T03:34:20;8.43;;;7.63;;
735;SDS011;352;48.626;9.238;2023-08-12T03:36:47;10.67;;;7.20;;
735;SDS011;352;48.626;9.238;2023-08-12T03:39:16;10.33;;;7.20;;
735;SDS011;352;48.626;9.238;2023-08-12T03:41:43;12.37;;;7.97;;
735;SDS011;352;48.626;9.238;2023-08-12T03:44:11;8.00;;;7.27;;
735;SDS011;352;48.626;9.238;2023-08-12T03:46:38;8.43;;;6.73;;
735;SDS011;352;48.626;9.238;2023-08-12T03:49:05;7.63;;;6.70;;
735;SDS011;352;48.626;9.238;2023-08-12T03:51:32;12.63;;;9.00;;
735;SDS011;352;48.626;9.238;2023-08-12T03:54:00;11.07;;;7.70;;
735;SDS011;352;48.626;9.238;2023-08-12T03:56:28;9.80;;;7.60;;
735;SDS011;352;48.626;9.238;2023-08-12T03:58:55;7.73;;;6.80;;
735;SDS011;352;48.626;9.238;2023-08-12T04:01:22;9.27;;;7.20;;
735;SDS011;352;48.626;9.238;2023-08-12T04:03:49;10.23;;;7.50;;
735;SDS011;352;48.626;9.238;2023-08-12T04:06:16;8.80;;;7.90;;
735;SDS011;352;48.626;9.238;2023-08-12T04:08:44;7.90;;;7.10;;
735;SDS011;352;48.626;9.238;2023-08-12T04:11:11;11.73;;;7.23;;
735;SDS011;352;48.626;9.238;2023-08-12T04:13:39;10.07;;;7.27;;
735;SDS011;352;48.626;9.238;2023-08-12T04:16:06;13.23;;;8.10;;
735;SDS011;352;48.626;9.238;2023-08-12T04:18:33;8.60;;;7.33;;
735;SDS011;352;48.626;9.238;2023-08-12T04:21:00;11.03;;;7.63;;
735;SDS011;352;48.626;9.238;2023-08-12T04:23:27;11.40;;;8.00;;
735;SDS011;352;48.626;9.238;2023-08-12T04:25:55;8.40;;;7.50;;
735;SDS011;352;48.626;9.238;2023-08-12T04:28:22;8.00;;;7.20;;
735;SDS011;352;48.626;9.238;2023-08-12T04:30:50;10.77;;;7.07;;
735;SDS011;352;48.626;9.238;2023-08-12T04:33:17;8.70;;;7.53;;
735;SDS011;352;48.626;9.238;2023-08-12T04:35:46;10.53;;;7.53;;
735;SDS011;352;48.626;9.238;2023-08-12T04:38:13;8.67;;;7.50;;
735;SDS011;352;48.626;9.238;2023-08-12T04:40:40;8.77;;;7.60;;
735;SDS011;352;48.626;9.238;2023-08-12T04:43:08;8.67;;;7.50;;
735;SDS011;352;48.626;9.238;2023-08-12T04:45:35;8.53;;;7.40;;
735;SDS011;352;48.626;9.238;2023-08-12T04:48:05;10.00;;;8.00;;
735;SDS011;352;48.626;9.238;2023-08-12T04:50:33;8.83;;;6.83;;
735;SDS011;352;48.626;9.238;2023-08-12T04:53:00;8.47;;;7.40;;
735;SDS011;352;48.626;9.238;2023-08-12T04:55:27;7.97;;;7.17;;
735;SDS011;352;48.626;9.238;2023-08-12T04:57:54;8.37;;;7.53;;
735;SDS011;352;48.626;9.238;2023-08-12T05:00:21;11.37;;;7.27;;
735;SDS011;352;48.626;9.238;2023-08-12T05:02:49;8.50;;;7.37;;
735;SDS011;352;48.626;9.238;2023-08-12T05:05:17;9.10;;;7.60;;
735;SDS011;352;48.626;9.238;2023-08-12T05:07:44;8.63;;;7.33;;
735;SDS011;352;48.626;9.238;2023-08-12T05:10:13;8.10;;;7.30;;
735;SDS011;352;48.626;9.238;2023-08-12T05:12:41;10.47;;;8.43;;
735;SDS011;352;48.626;9.238;2023-08-12T05:15:08;7.80;;;7.07;;
735;SDS011;352;48.626;9.238;2023-08-12T05:17:35;7.80;;;7.00;;
735;SDS011;352;48.626;9.238;2023-08-12T05:20:03;9.13;;;7.90;;
735;SDS011;352;48.626;9.238;2023-08-12T05:22:32;9.97;;;8.07;;
735;SDS011;352;48.626;9.238;2023-08-12T05:24:58;7.80;;;7.10;;
735;SDS011;352;48.626;9.238;2023-08-12T05:27:25;13.13;;;8.60;;
735;SDS011;352;48.626;9.238;2023-08-12T05:29:53;8.17;;;7.37;;
735;SDS011;352;48.626;9.238;2023-08-12T05:32:20;10.30;;;7.93;;
735;SDS011;352;48.626;9.238;2023-08-12T05:34:49;13.03;;;7.70;;
735;SDS011;352;48.626;9.238;2023-08-12T05:37:16;8.10;;;7.30;;
735;SDS011;352;48.626;9.238;2023-08-12T05:39:45;9.23;;;7.67;;
735;SDS011;352;48.626;9.238;2023-08-12T05:42:12;10.67;;;7.97;;
735;SDS011;352;48.626;9.238;2023-08-12T05:44:40;8.63;;;7.73;;
735;SDS011;352;48.626;9.238;2023-08-12T05:47:07;8.70;;;7.80;;
735;SDS011;352;48.626;9.238;2023-08-12T05:49:34;7.33;;;6.63;;
735;SDS011;352;48.626;9.238;2023-08-12T05:52:01;8.40;;;7.60;;
735;SDS011;352;48.626;9.238;2023-08-12T05:54:28;8.90;;;7.93;;
735;SDS011;352;48.626;9.238;2023-08-12T05:56:57;8.73;;;7.87;;
735;SDS011;352;48.626;9.238;2023-08-12T05:59:24;9.70;;;7.20;;
735;SDS011;352;48.626;9.238;2023-08-12T06:01:54;8.20;;;6.50;;
735;SDS011;352;48.626;9.238;2023-08-12T06:04:22;8.03;;;6.93;;
735;SDS011;352;48.626;9.238;2023-08-12T06:06:50;9.47;;;7.57;;
735;SDS011;352;48.626;9.238;2023-08-12T06:09:44;7.77;;;6.87;;
735;SDS011;352;48.626;9.238;2023-08-12T06:12:25;10.93;;;7.97;;
735;SDS011;352;48.626;9.238;2023-08-12T06:17:58;9.00;;;8.10;;
735;SDS011;352;48.626;9.238;2023-08-12T06:20:26;7.43;;;6.73;;
735;SDS011;352;48.626;9.238;2023-08-12T06:23:00;11.27;;;8.80;;
735;SDS011;352;48.626;9.238;2023-08-12T06:25:52;9.90;;;7.50;;
735;SDS011;352;48.626;9.238;2023-08-12T06:28:46;9.70;;;7.77;;
735;SDS011;352;48.626;9.238;2023-08-12T06:31:16;9.83;;;7.17;;
735;SDS011;352;48.626;9.238;2023-08-12T06:33:47;10.93;;;8.20;;
735;SDS011;352;48.626;9.238;2023-08-12T06:36:34;11.40;;;7.67;;
735;SDS011;352;48.626;9.238;2023-08-12T06:39:03;12.60;;;8.77;;
735;SDS011;352;48.626;9.238;2023-08-12T06:41:34;21.23;;;11.43;;
735;SDS011;352;48.626;9.238;2023-08-12T06:44:08;9.47;;;7.33;;
735;SDS011;352;48.626;9.238;2023-08-12T06:46:58;8.73;;;7.00;;
735;SDS011;352;48.626;9.238;2023-08-12T06:49:31;12.93;;;8.80;;
735;SDS011;352;48.626;9.238;2023-08-12T06:52:12;11.50;;;7.70;;
735;SDS011;352;48.626;9.238;2023-08-12T06:54:50;10.10;;;7.60;;
735;SDS011;352;48.626;9.238;2023-08-12T06:57:21;7.17;;;6.47;;
735;SDS011;352;48.626;9.238;2023-08-12T06:59:54;13.70;;;8.50;;
735;SDS011;352;48.626;9.238;2023-08-12T07:02:22;6.93;;;6.33;;
735;SDS011;352;48.626;9.238;2023-08-12T07:04:50;7.10;;;6.50;;
735;SDS011;352;48.626;9.238;2023-08-12T07:07:18;7.00;;;6.30;;
735;SDS011;352;48.626;9.238;2023-08-12T07:09:45;7.43;;;6.73;;
735;SDS011;352;48.626;9.238;2023-08-12T07:12:12;7.03;;;6.33;;
735;SDS011;352;48.626;9.238;2023-08-12T07:14:39;8.47;;;6.73;;
735;SDS011;352;48.626;9.238;2023-08-12T07:17:07;7.43;;;6.83;;
735;SDS011;352;48.626;9.238;2023-08-12T07:19:34;7.07;;;6.40;;
735;SDS011;352;48.626;9.238;2023-08-12T07:22:01;7.17;;;5.97;;
735;SDS011;352;48.626;9.238;2023-08-12T07:24:28;7.10;;;6.40;;
735;SDS011;352;48.626;9.238;2023-08-12T07:26:55;6.43;;;5.93;;
735;SDS011;352;48.626;9.238;2023-08-12T07:29:21;6.97;;;6.43;;
735;SDS011;352;48.626;9.238;2023-08-12T07:31:49;7.00;;;6.50;;
735;SDS011;352;48.626;9.238;2023-08-12T07:34:17;7.33;;;6.60;;
735;SDS011;352;48.626;9.238;2023-08-12T07:36:45;6.80;;;6.20;;
735;SDS011;352;48.626;9.238;2023-08-12T07:39:12;5.70;;;5.30;;
735;SDS011;352;48.626;9.238;2023-08-12T07:41:39;7.57;;;6.53;;
735;SDS011;352;48.626;9.238;2023-08-12T07:44:07;6.70;;;5.97;;
735;SDS011;352;48.626;9.238;2023-08-12T07:46:33;6.73;;;6.13;;
735;SDS011;352;48.626;9.238;2023-08-12T07:49:00;7.30;;;6.80;;
735;SDS011;352;48.626;9.238;2023-08-12T07:51:31;6.53;;;6.00;;
735;SDS011;352;48.626;9.238;2023-08-12T07:53:58;6.00;;;5.57;;
735;SDS011;352;48.626;9.238;2023-08-12T07:56:25;6.00;;;5.40;;
735;SDS011;352;48.626;9.238;2023-08-12T07:58:52;5.97;;;5.37;;
735;SDS011;352;48.626;9.238;2023-08-12T08:01:19;8.07;;;7.03;;
735;SDS011;352;48.626;9.238;2023-08-12T08:03:46;5.53;;;5.10;;
735;SDS011;352;48.626;9.238;2023-08-12T08:06:16;6.30;;;5.57;;
735;SDS011;352;48.626;9.238;2023-08-12T08:08:44;7.13;;;6.63;;
735;SDS011;352;48.626;9.238;2023-08-12T08:11:11;5.20;;;4.90;;
735;SDS011;352;48.626;9.238;2023-08-12T08:13:38;5.70;;;5.30;;
735;SDS011;352;48.626;9.238;2023-08-12T08:16:05;6.63;;;6.13;;
735;SDS011;352;48.626;9.238;2023-08-12T08:18:32;6.13;;;5.63;;
735;SDS011;352;48.626;9.238;2023-08-12T08:20:58;5.53;;;5.13;;
735;SDS011;352;48.626;9.238;2023-08-12T08:23:25;5.70;;;5.30;;
735;SDS011;352;48.626;9.238;2023-08-12T08:25:53;5.30;;;4.80;;
735;SDS011;352;48.626;9.238;2023-08-12T08:28:20;5.87;;;5.47;;
735;SDS011;352;48.626;9.238;2023-08-12T08:30:48;4.83;;;4.53;;
735;SDS011;352;48.626;9.238;2023-08-12T08:33:15;5.27;;;4.87;;
735;SDS011;352;48.626;9.238;2023-08-12T08:35:41;6.93;;;5.27;;
735;SDS011;352;48.626;9.238;2023-08-12T08:38:08;4.80;;;4.40;;
735;SDS011;352;48.626;9.238;2023-08-12T08:40:35;5.60;;;5.10;;
735;SDS011;352;48.626;9.238;2023-08-12T08:43:04;5.63;;;5.23;;
735;SDS011;352;48.626;9.238;2023-08-12T08:45:34;6.13;;;5.47;;
735;SDS011;352;48.626;9.238;2023-08-12T08:48:01;5.40;;;5.00;;
735;SDS011;352;48.626;9.238;2023-08-12T08:50:29;5.63;;;5.27;;
735;SDS011;352;48.626;9.238;2023-08-12T08:52:57;5.50;;;5.10;;
735;SDS011;352;48.626;9.238;2023-08-12T08:55:23;5.17;;;4.77;;
735;SDS011;352;48.626;9.238;2023-08-12T08:57:50;5.33;;;4.93;;
735;SDS011;352;48.626;9.238;2023-08-12T09:00:19;5.53;;;5.03;;
735;SDS011;352;48.626;9.238;2023-08-12T09:02:46;4.90;;;4.50;;
735;SDS011;352;48.626;9.238;2023-08-12T09:05:14;5.70;;;5.23;;
735;SDS011;352;48.626;9.238;2023-08-12T09:07:45;4.97;;;4.57;;
735;SDS011;352;48.626;9.238;2023-08-12T09:10:14;4.73;;;4.20;;
735;SDS011;352;48.626;9.238;2023-08-12T09:12:41;6.03;;;4.60;;
735;SDS011;352;48.626;9.238;2023-08-12T09:15:08;4.93;;;4.63;;
735;SDS011;352;48.626;9.238;2023-08-12T09:17:38;5.17;;;4.80;;
735;SDS011;352;48.626;9.238;2023-08-12T09:20:05;5.37;;;4.43;;
735;SDS011;352;48.626;9.238;2023-08-12T09:22:36;5.10;;;4.70;;
735;SDS011;352;48.626;9.238;2023-08-12T09:25:03;4.70;;;4.40;;
735;SDS011;352;48.626;9.238;2023-08-12T09:27:30;4.13;;;3.90;;
735;SDS011;352;48.626;9.238;2023-08-12T09:29:57;5.27;;;4.83;;
735;SDS011;352;48.626;9.238;2023-08-12T09:32:24;6.00;;;4.90;;
735;SDS011;352;48.626;9.238;2023-08-12T09:34:53;4.40;;;4.10;;
735;SDS011;352;48.626;9.238;2023-08-12T09:37:21;5.80;;;4.70;;
735;SDS011;352;48.626;9.238;2023-08-12T09:39:49;5.03;;;4.60;;
735;SDS011;352;48.626;9.238;2023-08-12T09:42:17;4.30;;;4.00;;
735;SDS011;352;48.626;9.238;2023-08-12T09:44:44;4.00;;;3.70;;
735;SDS011;352;48.626;9.238;2023-08-12T09:47:11;4.37;;;4.03;;
735;SDS011;352;48.626;9.238;2023-08-12T09:49:39;6.63;;;4.00;;
735;SDS011;352;48.626;9.238;2023-08-12T09:52:08;4.37;;;4.07;;
735;SDS011;352;48.626;9.238;2023-08-12T09:54:34;4.43;;;4.13;;
735;SDS011;352;48.626;9.238;2023-08-12T09:57:02;4.23;;;3.90;;
735;SDS011;352;48.626;9.238;2023-08-12T09:59:31;4.87;;;4.47;;
735;SDS011;352;48.626;9.238;2023-08-12T10:14:27;5.70;;;5.10;;
735;SDS011;352;48.626;9.238;2023-08-12T10:16:54;5.30;;;4.90;;
735;SDS011;352;48.626;9.238;2023-08-12T10:19:23;4.43;;;4.10;;
735;SDS011;352;48.626;9.238;2023-08-12T10:21:53;14.70;;;13.57;;
735;SDS011;352;48.626;9.238;2023-08-12T10:24:21;6.03;;;5.63;;
735;SDS011;352;48.626;9.238;2023-08-12T10:26:49;5.50;;;5.07;;
735;SDS011;352;48.626;9.238;2023-08-12T10:29:17;6.87;;;5.10;;
735;SDS011;352;48.626;9.238;2023-08-12T10:31:45;5.70;;;5.10;;
735;SDS011;352;48.626;9.238;2023-08-12T12:09:00;4.40;;;4.00;;
735;SDS011;352;48.626;9.238;2023-08-12T12:11:53;3.60;;;3.30;;
735;SDS011;352;48.626;9.238;2023-08-12T12:14:20;4.20;;;3.80;;
735;SDS011;352;48.626;9.238;2023-08-12T12:16:48;3.87;;;3.57;;
735;SDS011;352;48.626;9.238;2023-08-12T12:19:16;4.30;;;3.90;;
735;SDS011;352;48.626;9.238;2023-08-12T12:21:45;4.73;;;3.87;;
735;SDS011;352;48.626;9.238;2023-08-12T12:24:14;4.03;;;3.77;;
735;SDS011;352;48.626;9.238;2023-08-12T12:26:42;3.80;;;3.50;;
735;SDS011;352;48.626;9.238;2023-08-12T12:29:10;4.43;;;4.13;;
735;SDS011;352;48.626;9.238;2023-08-12T12:31:38;4.10;;;3.80;;
735;SDS011;352;48.626;9.238;2023-08-12T12:34:06;4.03;;;3.40;;
735;SDS011;352;48.626;9.238;2023-08-12T12:36:39;5.13;;;4.17;;
735;SDS011;352;48.626;9.238;2023-08-12T12:39:07;4.07;;;3.77;;
735;SDS011;352;48.626;9.238;2023-08-12T12:41:36;4.17;;;3.83;;
735;SDS011;352;48.626;9.238;2023-08-12T12:44:09;4.17;;;3.17;;
735;SDS011;352;48.626;9.238;2023-08-12T12:46:42;4.10;;;3.80;;
735;SDS011;352;48.626;9.238;2023-08-12T12:49:15;9.53;;;5.33;;
735;SDS011;352;48.626;9.238;2023-08-12T12:51:47;6.10;;;4.97;;
735;SDS011;352;48.626;9.238;2023-08-12T12:54:14;13.90;;;6.30;;
735;SDS011;352;48.626;9.238;2023-08-12T12:56:46;8.30;;;5.37;;
735;SDS011;352;48.626;9.238;2023-08-12T12:59:18;10.57;;;6.60;;
735;SDS011;352;48.626;9.238;2023-08-12T13:01:52;11.43;;;6.87;;
735;SDS011;352;48.626;9.238;2023-08-12T13:04:35;11.27;;;6.10;;
735;SDS011;352;48.626;9.238;2023-08-12T13:07:03;18.77;;;7.50;;
735;SDS011;352;48.626;9.238;2023-08-12T13:09:36;8.33;;;5.20;;
735;SDS011;352;48.626;9.238;2023-08-12T13:12:19;11.40;;;5.27;;
735;SDS011;352;48.626;9.238;2023-08-12T13:14:56;8.70;;;4.83;;
735;SDS011;352;48.626;9.238;2023-08-12T13:17:26;12.67;;;5.80;;
735;SDS011;352;48.626;9.238;2023-08-12T13:19:53;15.23;;;7.30;;
735;SDS011;352;48.626;9.238;2023-08-12T13:22:23;15.27;;;6.93;;
735;SDS011;352;48.626;9.238;2023-08-12T13:24:50;11.80;;;6.17;;
735;SDS011;352;48.626;9.238;2023-08-12T13:27:22;14.93;;;6.50;;
735;SDS011;352;48.626;9.238;2023-08-12T13:29:49;9.90;;;5.83;;
735;SDS011;352;48.626;9.238;2023-08-12T13:32:29;10.27;;;5.80;;
735;SDS011;352;48.626;9.238;2023-08-12T13:35:02;13.10;;;6.40;;
735;SDS011;352;48.626;9.238;2023-08-12T13:37:30;12.13;;;5.73;;
735;SDS011;352;48.626;9.238;2023-08-12T13:39:57;11.70;;;5.20;;
735;SDS011;352;48.626;9.238;2023-08-12T13:42:26;7.70;;;4.40;;
735;SDS011;352;48.626;9.238;2023-08-12T13:44:53;8.50;;;4.60;;
735;SDS011;352;48.626;9.238;2023-08-12T13:47:27;8.73;;;5.00;;
735;SDS011;352;48.626;9.238;2023-08-12T13:49:54;13.93;;;6.03;;
735;SDS011;352;48.626;9.238;2023-08-12T13:52:21;7.07;;;3.67;;
735;SDS011;352;48.626;9.238;2023-08-12T13:54:51;8.73;;;4.97;;
735;SDS011;352;48.626;9.238;2023-08-12T14:00:53;5.70;;;3.33;;
735;SDS011;352;48.626;9.238;2023-08-12T14:06:45;19.93;;;7.53;;
735;SDS011;352;48.626;9.238;2023-08-12T17:11:30;13.33;;;9.20;;
735;SDS011;352;48.626;9.238;2023-08-12T17:13:58;8.37;;;7.57;;
735;SDS011;352;48.626;9.238;2023-08-12T17:16:27;10.43;;;8.93;;
735;SDS011;352;48.626;9.238;2023-08-12T17:18:57;10.30;;;7.87;;
735;SDS011;352;48.626;9.238;2023-08-12T17:21:27;13.83;;;9.00;;
735;SDS011;352;48.626;9.238;2023-08-12T17:24:04;9.80;;;7.77;;
735;SDS011;352;48.626;9.238;2023-08-12T17:26:44;8.53;;;7.70;;
735;SDS011;352;48.626;9.238;2023-08-12T17:29:14;12.70;;;9.03;;
735;SDS011;352;48.626;9.238;2023-08-12T17:31:41;14.63;;;10.83;;
735;SDS011;352;48.626;9.238;2023-08-12T17:34:13;12.37;;;9.10;;
735;SDS011;352;48.626;9.238;2023-08-12T17:36:44;10.40;;;9.10;;
735;SDS011;352;48.626;9.238;2023-08-12T17:39:13;10.90;;;9.17;;
735;SDS011;352;48.626;9.238;2023-08-12T17:41:41;11.40;;;9.33;;
735;SDS011;352;48.626;9.238;2023-08-12T17:44:10;16.53;;;9.83;;
735;SDS011;352;48.626;9.238;2023-08-12T17:46:42;9.00;;;8.07;;
735;SDS011;352;48.626;9.238;2023-08-12T17:49:13;10.80;;;8.30;;
735;SDS011;352;48.626;9.238;2023-08-12T17:51:46;11.73;;;8.73;;
735;SDS011;352;48.626;9.238;2023-08-12T17:54:30;8.43;;;7.57;;
735;SDS011;352;48.626;9.238;2023-08-12T17:56:59;10.23;;;7.87;;
735;SDS011;352;48.626;9.238;2023-08-12T18:00:10;13.50;;;8.20;;
735;SDS011;352;48.626;9.238;2023-08-12T18:06:00;12.07;;;8.27;;
735;SDS011;352;48.626;9.238;2023-08-12T18:09:35;12.17;;;7.17;;
735;SDS011;352;48.626;9.238;2023-08-12T18:12:25;14.60;;;9.00;;
735;SDS011;352;48.626;9.238;2023-08-12T18:15:23;7.60;;;6.50;;
735;SDS011;352;48.626;9.238;2023-08-12T18:17:53;7.47;;;6.37;;
735;SDS011;352;48.626;9.238;2023-08-12T19:54:30;11.27;;;8.90;;
735;SDS011;352;48.626;9.238;2023-08-12T19:56:57;10.57;;;9.17;;
735;SDS011;352;48.626;9.238;2023-08-12T19:59:24;10.57;;;9.50;;
735;SDS011;352;48.626;9.238;2023-08-12T20:01:53;9.80;;;8.90;;
735;SDS011;352;48.626;9.238;2023-08-12T20:04:21;9.80;;;8.80;;
735;SDS011;352;48.626;9.238;2023-08-12T20:07:06;14.20;;;10.50;;
735;SDS011;352;48.626;9.238;2023-08-12T20:09:57;16.00;;;10.10;;
735;SDS011;352;48.626;9.238;2023-08-12T20:12:24;9.50;;;8.47;;
735;SDS011;352;48.626;9.238;2023-08-12T20:14:52;11.03;;;9.13;;
735;SDS011;352;48.626;9.238;2023-08-12T20:17:19;10.43;;;9.10;;
735;SDS011;352;48.626;9.238;2023-08-12T20:19:47;9.30;;;8.20;;
735;SDS011;352;48.626;9.238;2023-08-12T20:22:14;10.83;;;8.67;;
735;SDS011;352;48.626;9.238;2023-08-12T20:24:41;15.43;;;8.70;;
735;SDS011;352;48.626;9.238;2023-08-12T20:27:10;9.30;;;8.10;;
735;SDS011;352;48.626;9.238;2023-08-12T20:29:37;9.00;;;7.93;;
735;SDS011;352;48.626;9.238;2023-08-12T20:32:04;11.27;;;8.37;;
735;SDS011;352;48.626;9.238;2023-08-12T20:34:31;7.90;;;7.07;;
735;SDS011;352;48.626;9.238;2023-08-12T20:36:58;8.33;;;7.03;;
735;SDS011;352;48.626;9.238;2023-08-12T20:39:25;8.70;;;7.80;;
735;SDS011;352;48.626;9.238;2023-08-12T20:41:52;10.83;;;7.90;;
735;SDS011;352;48.626;9.238;2023-08-12T20:44:21;10.20;;;7.80;;
735;SDS011;352;48.626;9.238;2023-08-12T20:46:48;10.17;;;8.67;;
735;SDS011;352;48.626;9.238;2023-08-12T20:49:15;10.10;;;8.33;;
735;SDS011;352;48.626;9.238;2023-08-12T20:51:42;13.67;;;10.80;;
735;SDS011;352;48.626;9.238;2023-08-12T20:54:09;10.20;;;9.00;;
735;SDS011;352;48.626;9.238;2023-08-12T20:56:36;12.60;;;10.10;;
735;SDS011;352;48.626;9.238;2023-08-12T20:59:04;8.93;;;8.03;;
735;SDS011;352;48.626;9.238;2023-08-12T21:01:32;20.33;;;12.83;;
735;SDS011;352;48.626;9.238;2023-08-12T21:03:59;13.77;;;9.87;;
735;SDS011;352;48.626;9.238;2023-08-12T21:06:29;10.73;;;9.10;;
735;SDS011;352;48.626;9.238;2023-08-12T21:08:56;11.40;;;9.07;;
735;SDS011;352;48.626;9.238;2023-08-12T21:11:23;9.37;;;8.10;;
735;SDS011;352;48.626;9.238;2023-08-12T21:13:50;8.97;;;7.30;;
735;SDS011;352;48.626;9.238;2023-08-12T21:16:17;10.60;;;7.47;;
735;SDS011;352;48.626;9.238;2023-08-12T21:18:46;8.60;;;6.90;;
735;SDS011;352;48.626;9.238;2023-08-12T21:21:17;9.53;;;6.87;;
735;SDS011;352;48.626;9.238;2023-08-12T21:23:45;10.57;;;7.30;;
735;SDS011;352;48.626;9.238;2023-08-12T21:26:15;9.60;;;6.30;;
735;SDS011;352;48.626;9.238;2023-08-12T21:28:50;7.97;;;6.53;;
735;SDS011;352;48.626;9.238;2023-08-12T21:31:23;9.23;;;6.60;;
735;SDS011;352;48.626;9.238;2023-08-12T21:33:58;11.60;;;7.93;;
735;SDS011;352;48.626;9.238;2023-08-12T21:36:38;7.50;;;6.73;;
735;SDS011;352;48.626;9.238;2023-08-12T21:39:22;9.60;;;7.40;;
735;SDS011;352;48.626;9.238;2023-08-12T21:41:59;11.37;;;8.80;;
735;SDS011;352;48.626;9.238;2023-08-12T21:44:56;12.20;;;7.53;;
735;SDS011;352;48.626;9.238;2023-08-12T21:47:32;9.60;;;7.60;;
735;SDS011;352;48.626;9.238;2023-08-12T21:50:16;12.87;;;8.50;;
735;SDS011;352;48.626;9.238;2023-08-12T21:52:46;12.60;;;8.67;;
735;SDS011;352;48.626;9.238;2023-08-12T21:55:27;16.07;;;9.60;;
735;SDS011;352;48.626;9.238;2023-08-12T21:58:00;10.57;;;7.47;;
735;SDS011;352;48.626;9.238;2023-08-12T22:00:29;8.40;;;6.67;;
735;SDS011;352;48.626;9.238;2023-08-12T22:03:29;10.87;;;6.60;;
735;SDS011;352;48.626;9.238;2023-08-12T22:06:11;13.83;;;8.73;;
735;SDS011;352;48.626;9.238;2023-08-12T22:09:01;12.97;;;7.40;;
735;SDS011;352;48.626;9.238;2023-08-12T22:11:52;14.53;;;8.10;;
735;SDS011;352;48.626;9.238;2023-08-12T22:14:30;8.40;;;6.10;;
735;SDS011;352;48.626;9.238;2023-08-12T22:17:20;10.07;;;7.07;;
735;SDS011;352;48.626;9.238;2023-08-12T22:20:17;10.73;;;6.77;;
735;SDS011;352;48.626;9.238;2023-08-12T22:22:49;8.63;;;6.43;;
735;SDS011;352;48.626;9.238;2023-08-12T22:28:20;8.47;;;6.60;;
735;SDS011;352;48.626;9.238;2023-08-12T22:29:39;8.47;;;6.80;;
735;SDS011;352;48.626;9.238;2023-08-12T23:02:46;63.43;;;20.07;;
735;SDS011;352;48.626;9.238;2023-08-12T23:05:47;9.60;;;5.73;;
735;SDS011;352;48.626;9.238;2023-08-12T23:12:19;10.00;;;5.80;;
735;SDS011;352;48.626;9.238;2023-08-12T23:15:32;9.80;;;5.57;;